Groznyj, Russia
Current Conditions -  °F | °C
As of 2:00 AM on Wednesday 26 Nov 2014 (Local Time) from URMN Reporting Station
Overcast Overcast  
Wind Chill: 30°   Ceiling: 700
Heat Index: 30°   Visibility: 6mi
Dew Point: 28°   Wind: 0mph
Humidity: 93%   Direction: NA
Pressure: 30.18"   Gusts: NA
Location:  43.31°N, 45.7°E
Report Text: URMN 252300Z 00000MPS 9999 OVC007 M01/M02 Q1022 NOSIG RMK MTOBSC QFE729
Loading
Personal Weather Stations






























Interactive Weather Map New forecast layout! Learn more

10-Day Weather Forecast

Advertisements
Track Severe Weather on mobile